sensor_id;sensor_type;location;lat;lon;timestamp;temperature;humidity
2200;DHT22;1106;48.762;9.168;2022-09-09T00:00:25;16.40;80.30
2200;DHT22;1106;48.762;9.168;2022-09-09T00:02:57;16.40;80.30
2200;DHT22;1106;48.762;9.168;2022-09-09T00:05:32;16.30;80.30
2200;DHT22;1106;48.762;9.168;2022-09-09T00:08:04;16.30;80.50
2200;DHT22;1106;48.762;9.168;2022-09-09T00:10:34;16.40;80.30
2200;DHT22;1106;48.762;9.168;2022-09-09T00:13:14;16.40;80.10
2200;DHT22;1106;48.762;9.168;2022-09-09T00:15:49;16.40;80.20
2200;DHT22;1106;48.762;9.168;2022-09-09T00:18:25;16.40;80.00
2200;DHT22;1106;48.762;9.168;2022-09-09T00:20:58;16.30;79.90
2200;DHT22;1106;48.762;9.168;2022-09-09T00:23:33;16.30;80.10
2200;DHT22;1106;48.762;9.168;2022-09-09T00:26:06;16.30;80.10
2200;DHT22;1106;48.762;9.168;2022-09-09T00:28:39;16.30;80.40
2200;DHT22;1106;48.762;9.168;2022-09-09T00:31:12;16.30;80.60
2200;DHT22;1106;48.762;9.168;2022-09-09T00:33:40;16.30;80.50
2200;DHT22;1106;48.762;9.168;2022-09-09T00:36:13;16.30;80.40
2200;DHT22;1106;48.762;9.168;2022-09-09T00:38:45;16.30;80.20
2200;DHT22;1106;48.762;9.168;2022-09-09T00:41:20;16.30;80.30
2200;DHT22;1106;48.762;9.168;2022-09-09T00:43:57;16.40;80.20
2200;DHT22;1106;48.762;9.168;2022-09-09T00:46:51;16.40;79.90
2200;DHT22;1106;48.762;9.168;2022-09-09T00:49:32;16.50;79.70
2200;DHT22;1106;48.762;9.168;2022-09-09T00:52:11;16.50;79.70
2200;DHT22;1106;48.762;9.168;2022-09-09T00:54:52;16.50;79.70
2200;DHT22;1106;48.762;9.168;2022-09-09T00:57:25;16.60;79.10
2200;DHT22;1106;48.762;9.168;2022-09-09T01:00:15;16.60;78.60
2200;DHT22;1106;48.762;9.168;2022-09-09T01:02:52;16.50;79.20
2200;DHT22;1106;48.762;9.168;2022-09-09T01:05:24;16.50;79.00
2200;DHT22;1106;48.762;9.168;2022-09-09T01:07:54;16.50;78.90
2200;DHT22;1106;48.762;9.168;2022-09-09T01:10:29;16.50;78.60
2200;DHT22;1106;48.762;9.168;2022-09-09T01:13:02;16.60;77.90
2200;DHT22;1106;48.762;9.168;2022-09-09T01:15:32;16.70;77.50
2200;DHT22;1106;48.762;9.168;2022-09-09T01:18:03;16.70;77.70
2200;DHT22;1106;48.762;9.168;2022-09-09T01:20:36;16.70;78.00
2200;DHT22;1106;48.762;9.168;2022-09-09T01:23:27;16.80;78.00
2200;DHT22;1106;48.762;9.168;2022-09-09T01:26:26;16.80;77.30
2200;DHT22;1106;48.762;9.168;2022-09-09T01:28:54;16.80;77.40
2200;DHT22;1106;48.762;9.168;2022-09-09T01:31:28;16.80;77.30
2200;DHT22;1106;48.762;9.168;2022-09-09T01:34:12;16.90;77.30
2200;DHT22;1106;48.762;9.168;2022-09-09T01:36:43;16.90;76.80
2200;DHT22;1106;48.762;9.168;2022-09-09T01:39:11;16.90;76.60
2200;DHT22;1106;48.762;9.168;2022-09-09T01:45:02;16.90;76.70
2200;DHT22;1106;48.762;9.168;2022-09-09T01:47:29;16.90;76.70
2200;DHT22;1106;48.762;9.168;2022-09-09T01:53:20;16.80;76.90
2200;DHT22;1106;48.762;9.168;2022-09-09T01:56:00;16.80;76.90
2200;DHT22;1106;48.762;9.168;2022-09-09T01:58:36;16.80;76.80
2200;DHT22;1106;48.762;9.168;2022-09-09T02:01:15;16.80;76.70
2200;DHT22;1106;48.762;9.168;2022-09-09T02:03:49;16.80;76.70
2200;DHT22;1106;48.762;9.168;2022-09-09T02:06:26;16.80;76.90
2200;DHT22;1106;48.762;9.168;2022-09-09T02:08:56;16.80;77.30
2200;DHT22;1106;48.762;9.168;2022-09-09T02:11:27;16.80;77.00
2200;DHT22;1106;48.762;9.168;2022-09-09T02:13:57;16.70;76.90
2200;DHT22;1106;48.762;9.168;2022-09-09T02:16:32;16.70;77.00
2200;DHT22;1106;48.762;9.168;2022-09-09T02:19:03;16.70;77.10
2200;DHT22;1106;48.762;9.168;2022-09-09T02:21:33;16.60;77.50
2200;DHT22;1106;48.762;9.168;2022-09-09T02:24:04;16.60;77.90
2200;DHT22;1106;48.762;9.168;2022-09-09T02:26:34;16.50;78.20
2200;DHT22;1106;48.762;9.168;2022-09-09T02:29:08;16.40;78.90
2200;DHT22;1106;48.762;9.168;2022-09-09T02:31:37;16.30;79.30
2200;DHT22;1106;48.762;9.168;2022-09-09T02:34:05;16.30;79.10
2200;DHT22;1106;48.762;9.168;2022-09-09T02:36:35;16.20;79.30
2200;DHT22;1106;48.762;9.168;2022-09-09T02:39:06;16.20;79.50
2200;DHT22;1106;48.762;9.168;2022-09-09T02:41:36;16.20;79.60
2200;DHT22;1106;48.762;9.168;2022-09-09T02:44:08;16.10;79.70
2200;DHT22;1106;48.762;9.168;2022-09-09T02:46:58;16.10;79.90
2200;DHT22;1106;48.762;9.168;2022-09-09T02:49:37;16.00;80.00
2200;DHT22;1106;48.762;9.168;2022-09-09T02:52:08;16.00;80.00
2200;DHT22;1106;48.762;9.168;2022-09-09T02:54:38;16.00;80.00
2200;DHT22;1106;48.762;9.168;2022-09-09T02:57:08;15.90;80.30
2200;DHT22;1106;48.762;9.168;2022-09-09T02:59:37;15.90;80.50
2200;DHT22;1106;48.762;9.168;2022-09-09T03:02:06;15.80;80.60
2200;DHT22;1106;48.762;9.168;2022-09-09T03:04:33;15.80;80.60
2200;DHT22;1106;48.762;9.168;2022-09-09T03:06:59;15.80;80.50
2200;DHT22;1106;48.762;9.168;2022-09-09T03:09:28;15.90;80.50
2200;DHT22;1106;48.762;9.168;2022-09-09T03:11:56;15.90;80.60
2200;DHT22;1106;48.762;9.168;2022-09-09T03:14:22;15.80;81.30
2200;DHT22;1106;48.762;9.168;2022-09-09T03:16:50;15.80;81.50
2200;DHT22;1106;48.762;9.168;2022-09-09T03:19:19;15.70;81.70
2200;DHT22;1106;48.762;9.168;2022-09-09T03:21:46;15.70;81.60
2200;DHT22;1106;48.762;9.168;2022-09-09T03:24:13;15.80;81.40
2200;DHT22;1106;48.762;9.168;2022-09-09T03:26:40;15.80;81.40
2200;DHT22;1106;48.762;9.168;2022-09-09T03:29:10;15.80;81.30
2200;DHT22;1106;48.762;9.168;2022-09-09T03:31:38;15.80;81.40
2200;DHT22;1106;48.762;9.168;2022-09-09T03:34:05;15.70;81.50
2200;DHT22;1106;48.762;9.168;2022-09-09T03:36:33;15.70;81.70
2200;DHT22;1106;48.762;9.168;2022-09-09T03:39:00;15.70;81.70
2200;DHT22;1106;48.762;9.168;2022-09-09T03:41:28;15.60;81.90
2200;DHT22;1106;48.762;9.168;2022-09-09T03:43:55;15.60;81.90
2200;DHT22;1106;48.762;9.168;2022-09-09T03:46:23;15.60;81.90
2200;DHT22;1106;48.762;9.168;2022-09-09T03:48:50;15.60;81.90
2200;DHT22;1106;48.762;9.168;2022-09-09T03:51:18;15.70;81.80
2200;DHT22;1106;48.762;9.168;2022-09-09T03:53:46;15.60;82.00
2200;DHT22;1106;48.762;9.168;2022-09-09T03:56:13;15.60;82.20
2200;DHT22;1106;48.762;9.168;2022-09-09T03:58:40;15.60;82.10
2200;DHT22;1106;48.762;9.168;2022-09-09T04:01:09;15.70;82.10
2200;DHT22;1106;48.762;9.168;2022-09-09T04:03:38;15.70;81.70
2200;DHT22;1106;48.762;9.168;2022-09-09T04:06:07;15.80;81.60
2200;DHT22;1106;48.762;9.168;2022-09-09T04:08:35;15.80;81.60
2200;DHT22;1106;48.762;9.168;2022-09-09T04:11:04;15.70;81.40
2200;DHT22;1106;48.762;9.168;2022-09-09T04:13:33;15.80;81.40
2200;DHT22;1106;48.762;9.168;2022-09-09T04:16:01;15.80;80.90
2200;DHT22;1106;48.762;9.168;2022-09-09T04:18:29;15.80;80.90
2200;DHT22;1106;48.762;9.168;2022-09-09T04:20:56;15.90;80.70
2200;DHT22;1106;48.762;9.168;2022-09-09T04:23:23;16.00;80.10
2200;DHT22;1106;48.762;9.168;2022-09-09T04:25:52;16.10;79.50
2200;DHT22;1106;48.762;9.168;2022-09-09T04:28:22;16.20;79.20
2200;DHT22;1106;48.762;9.168;2022-09-09T04:30:50;16.30;78.90
2200;DHT22;1106;48.762;9.168;2022-09-09T04:33:18;16.30;79.00
2200;DHT22;1106;48.762;9.168;2022-09-09T04:35:46;16.40;78.80
2200;DHT22;1106;48.762;9.168;2022-09-09T04:38:14;16.40;78.80
2200;DHT22;1106;48.762;9.168;2022-09-09T04:40:42;16.50;78.50
2200;DHT22;1106;48.762;9.168;2022-09-09T04:43:09;16.50;78.40
2200;DHT22;1106;48.762;9.168;2022-09-09T04:45:38;16.60;77.90
2200;DHT22;1106;48.762;9.168;2022-09-09T04:48:06;16.60;78.10
2200;DHT22;1106;48.762;9.168;2022-09-09T04:50:33;16.60;77.80
2200;DHT22;1106;48.762;9.168;2022-09-09T04:53:00;16.60;77.70
2200;DHT22;1106;48.762;9.168;2022-09-09T04:55:27;16.50;78.10
2200;DHT22;1106;48.762;9.168;2022-09-09T04:57:54;16.50;78.20
2200;DHT22;1106;48.762;9.168;2022-09-09T05:00:22;16.50;78.20
2200;DHT22;1106;48.762;9.168;2022-09-09T05:02:50;16.40;78.70
2200;DHT22;1106;48.762;9.168;2022-09-09T05:05:17;16.40;78.70
2200;DHT22;1106;48.762;9.168;2022-09-09T05:07:44;16.40;78.70
2200;DHT22;1106;48.762;9.168;2022-09-09T05:10:11;16.40;78.90
2200;DHT22;1106;48.762;9.168;2022-09-09T05:12:38;16.40;78.90
2200;DHT22;1106;48.762;9.168;2022-09-09T05:15:06;16.30;78.90
2200;DHT22;1106;48.762;9.168;2022-09-09T05:17:33;16.40;79.10
2200;DHT22;1106;48.762;9.168;2022-09-09T05:20:02;16.40;79.10
2200;DHT22;1106;48.762;9.168;2022-09-09T05:22:29;16.50;79.00
2200;DHT22;1106;48.762;9.168;2022-09-09T05:24:56;16.50;79.00
2200;DHT22;1106;48.762;9.168;2022-09-09T05:27:23;16.60;78.70
2200;DHT22;1106;48.762;9.168;2022-09-09T05:29:51;16.60;78.80
2200;DHT22;1106;48.762;9.168;2022-09-09T05:32:17;16.60;78.80
2200;DHT22;1106;48.762;9.168;2022-09-09T05:34:44;16.70;78.70
2200;DHT22;1106;48.762;9.168;2022-09-09T05:37:13;16.70;78.50
2200;DHT22;1106;48.762;9.168;2022-09-09T05:39:41;16.80;78.30
2200;DHT22;1106;48.762;9.168;2022-09-09T05:42:08;16.70;78.50
2200;DHT22;1106;48.762;9.168;2022-09-09T05:44:35;16.80;78.40
2200;DHT22;1106;48.762;9.168;2022-09-09T05:47:02;16.90;78.30
2200;DHT22;1106;48.762;9.168;2022-09-09T05:49:29;17.00;78.00
2200;DHT22;1106;48.762;9.168;2022-09-09T05:51:56;17.10;77.70
2200;DHT22;1106;48.762;9.168;2022-09-09T05:54:24;17.20;77.20
2200;DHT22;1106;48.762;9.168;2022-09-09T05:56:51;17.30;76.90
2200;DHT22;1106;48.762;9.168;2022-09-09T05:59:19;17.40;76.80
2200;DHT22;1106;48.762;9.168;2022-09-09T06:01:46;17.60;76.40
2200;DHT22;1106;48.762;9.168;2022-09-09T06:04:13;17.70;75.80
2200;DHT22;1106;48.762;9.168;2022-09-09T06:06:40;17.80;75.30
2200;DHT22;1106;48.762;9.168;2022-09-09T06:09:08;17.90;75.20
2200;DHT22;1106;48.762;9.168;2022-09-09T06:11:38;18.10;74.60
2200;DHT22;1106;48.762;9.168;2022-09-09T06:14:06;18.20;74.20
2200;DHT22;1106;48.762;9.168;2022-09-09T06:16:33;18.30;73.80
2200;DHT22;1106;48.762;9.168;2022-09-09T06:19:01;18.30;73.60
2200;DHT22;1106;48.762;9.168;2022-09-09T06:21:29;18.40;73.80
2200;DHT22;1106;48.762;9.168;2022-09-09T06:23:59;18.40;73.70
2200;DHT22;1106;48.762;9.168;2022-09-09T06:26:28;18.50;73.80
2200;DHT22;1106;48.762;9.168;2022-09-09T06:28:58;18.60;73.60
2200;DHT22;1106;48.762;9.168;2022-09-09T06:31:26;18.70;73.20
2200;DHT22;1106;48.762;9.168;2022-09-09T06:33:56;18.80;73.00
2200;DHT22;1106;48.762;9.168;2022-09-09T06:36:26;18.90;72.80
2200;DHT22;1106;48.762;9.168;2022-09-09T06:38:53;19.00;72.60
2200;DHT22;1106;48.762;9.168;2022-09-09T06:41:22;19.10;72.60
2200;DHT22;1106;48.762;9.168;2022-09-09T06:43:49;19.20;72.20
2200;DHT22;1106;48.762;9.168;2022-09-09T06:46:18;19.20;72.00
2200;DHT22;1106;48.762;9.168;2022-09-09T06:48:47;19.20;71.90
2200;DHT22;1106;48.762;9.168;2022-09-09T06:51:15;19.30;71.60
2200;DHT22;1106;48.762;9.168;2022-09-09T06:53:44;19.40;71.70
2200;DHT22;1106;48.762;9.168;2022-09-09T06:56:19;19.40;72.10
2200;DHT22;1106;48.762;9.168;2022-09-09T06:58:47;19.60;71.40
2200;DHT22;1106;48.762;9.168;2022-09-09T07:01:17;19.70;70.70
2200;DHT22;1106;48.762;9.168;2022-09-09T07:03:46;19.70;70.50
2200;DHT22;1106;48.762;9.168;2022-09-09T07:06:17;19.80;70.60
2200;DHT22;1106;48.762;9.168;2022-09-09T07:08:48;19.80;70.40
2200;DHT22;1106;48.762;9.168;2022-09-09T07:11:16;19.90;70.40
2200;DHT22;1106;48.762;9.168;2022-09-09T07:13:43;20.00;70.20
2200;DHT22;1106;48.762;9.168;2022-09-09T07:16:11;20.30;69.40
2200;DHT22;1106;48.762;9.168;2022-09-09T07:18:40;20.40;69.40
2200;DHT22;1106;48.762;9.168;2022-09-09T07:21:09;20.50;68.60
2200;DHT22;1106;48.762;9.168;2022-09-09T07:23:37;20.60;68.60
2200;DHT22;1106;48.762;9.168;2022-09-09T07:26:08;20.60;68.40
2200;DHT22;1106;48.762;9.168;2022-09-09T07:28:36;20.80;67.80
2200;DHT22;1106;48.762;9.168;2022-09-09T07:31:04;20.90;67.40
2200;DHT22;1106;48.762;9.168;2022-09-09T07:33:33;21.10;67.10
2200;DHT22;1106;48.762;9.168;2022-09-09T07:36:08;21.20;66.80
2200;DHT22;1106;48.762;9.168;2022-09-09T07:38:38;21.20;66.60
2200;DHT22;1106;48.762;9.168;2022-09-09T07:41:07;21.30;66.40
2200;DHT22;1106;48.762;9.168;2022-09-09T07:43:38;21.40;65.90
2200;DHT22;1106;48.762;9.168;2022-09-09T07:46:05;21.70;65.90
2200;DHT22;1106;48.762;9.168;2022-09-09T07:48:33;21.90;65.00
2200;DHT22;1106;48.762;9.168;2022-09-09T07:51:07;22.00;64.60
2200;DHT22;1106;48.762;9.168;2022-09-09T07:53:34;22.00;64.50
2200;DHT22;1106;48.762;9.168;2022-09-09T07:56:05;22.00;64.40
2200;DHT22;1106;48.762;9.168;2022-09-09T07:58:32;21.90;64.50
2200;DHT22;1106;48.762;9.168;2022-09-09T08:00:59;21.90;64.70
2200;DHT22;1106;48.762;9.168;2022-09-09T08:03:26;21.80;65.20
2200;DHT22;1106;48.762;9.168;2022-09-09T08:05:59;21.80;65.30
2200;DHT22;1106;48.762;9.168;2022-09-09T08:08:28;21.90;65.10
2200;DHT22;1106;48.762;9.168;2022-09-09T08:11:02;21.80;64.70
2200;DHT22;1106;48.762;9.168;2022-09-09T08:13:29;21.90;64.40
2200;DHT22;1106;48.762;9.168;2022-09-09T08:16:04;21.80;64.60
2200;DHT22;1106;48.762;9.168;2022-09-09T08:18:31;21.80;64.40
2200;DHT22;1106;48.762;9.168;2022-09-09T08:21:04;21.80;64.40
2200;DHT22;1106;48.762;9.168;2022-09-09T08:23:32;21.80;64.80
2200;DHT22;1106;48.762;9.168;2022-09-09T08:26:04;21.80;64.70
2200;DHT22;1106;48.762;9.168;2022-09-09T08:28:31;21.80;63.60
2200;DHT22;1106;48.762;9.168;2022-09-09T08:31:05;21.70;64.30
2200;DHT22;1106;48.762;9.168;2022-09-09T08:33:32;21.70;64.40
2200;DHT22;1106;48.762;9.168;2022-09-09T08:35:59;21.80;63.90
2200;DHT22;1106;48.762;9.168;2022-09-09T08:38:26;21.90;64.10
2200;DHT22;1106;48.762;9.168;2022-09-09T08:41:03;22.00;63.60
2200;DHT22;1106;48.762;9.168;2022-09-09T08:43:35;22.00;63.50
2200;DHT22;1106;48.762;9.168;2022-09-09T08:46:10;22.00;63.80
2200;DHT22;1106;48.762;9.168;2022-09-09T08:48:50;21.90;63.90
2200;DHT22;1106;48.762;9.168;2022-09-09T08:51:27;21.80;64.00
2200;DHT22;1106;48.762;9.168;2022-09-09T08:53:59;21.80;64.00
2200;DHT22;1106;48.762;9.168;2022-09-09T08:56:34;21.90;63.20
2200;DHT22;1106;48.762;9.168;2022-09-09T08:59:07;21.90;62.90
2200;DHT22;1106;48.762;9.168;2022-09-09T09:01:59;22.00;62.60
2200;DHT22;1106;48.762;9.168;2022-09-09T09:04:46;22.10;62.50
2200;DHT22;1106;48.762;9.168;2022-09-09T09:07:33;22.20;62.20
2200;DHT22;1106;48.762;9.168;2022-09-09T09:10:15;22.20;61.90
2200;DHT22;1106;48.762;9.168;2022-09-09T09:12:52;22.30;60.20
2200;DHT22;1106;48.762;9.168;2022-09-09T09:15:25;22.40;59.80
2200;DHT22;1106;48.762;9.168;2022-09-09T09:17:57;22.50;59.30
2200;DHT22;1106;48.762;9.168;2022-09-09T09:20:34;22.60;59.80
2200;DHT22;1106;48.762;9.168;2022-09-09T09:23:19;22.60;60.10
2200;DHT22;1106;48.762;9.168;2022-09-09T09:25:58;22.60;61.50
2200;DHT22;1106;48.762;9.168;2022-09-09T09:28:33;22.50;63.80
2200;DHT22;1106;48.762;9.168;2022-09-09T09:31:06;22.40;65.00
2200;DHT22;1106;48.762;9.168;2022-09-09T09:33:46;22.10;65.00
2200;DHT22;1106;48.762;9.168;2022-09-09T09:36:17;21.90;65.40
2200;DHT22;1106;48.762;9.168;2022-09-09T09:38:55;21.50;66.60
2200;DHT22;1106;48.762;9.168;2022-09-09T09:41:30;21.20;68.30
2200;DHT22;1106;48.762;9.168;2022-09-09T09:43:59;21.10;67.00
2200;DHT22;1106;48.762;9.168;2022-09-09T09:46:27;21.10;67.30
2200;DHT22;1106;48.762;9.168;2022-09-09T09:48:59;21.20;67.00
2200;DHT22;1106;48.762;9.168;2022-09-09T09:51:27;21.30;66.60
2200;DHT22;1106;48.762;9.168;2022-09-09T09:54:07;21.30;66.70
2200;DHT22;1106;48.762;9.168;2022-09-09T09:56:35;21.40;66.20
2200;DHT22;1106;48.762;9.168;2022-09-09T09:59:04;21.60;65.30
2200;DHT22;1106;48.762;9.168;2022-09-09T10:01:32;21.60;64.20
2200;DHT22;1106;48.762;9.168;2022-09-09T10:04:02;21.70;63.90
2200;DHT22;1106;48.762;9.168;2022-09-09T10:06:31;21.80;62.80
2200;DHT22;1106;48.762;9.168;2022-09-09T10:08:59;21.80;62.70
2200;DHT22;1106;48.762;9.168;2022-09-09T10:11:38;21.80;62.90
2200;DHT22;1106;48.762;9.168;2022-09-09T10:14:16;21.80;63.90
2200;DHT22;1106;48.762;9.168;2022-09-09T10:17:00;22.10;64.50
2200;DHT22;1106;48.762;9.168;2022-09-09T10:19:32;22.40;64.30
2200;DHT22;1106;48.762;9.168;2022-09-09T10:22:17;22.50;63.70
2200;DHT22;1106;48.762;9.168;2022-09-09T10:28:00;22.90;62.30
2200;DHT22;1106;48.762;9.168;2022-09-09T11:28:02;22.50;57.30
2200;DHT22;1106;48.762;9.168;2022-09-09T11:30:37;22.10;56.00
2200;DHT22;1106;48.762;9.168;2022-09-09T11:36:38;22.00;56.60
2200;DHT22;1106;48.762;9.168;2022-09-09T11:42:12;22.10;57.80
2200;DHT22;1106;48.762;9.168;2022-09-09T11:44:44;21.70;59.10
2200;DHT22;1106;48.762;9.168;2022-09-09T11:47:20;21.60;59.90
2200;DHT22;1106;48.762;9.168;2022-09-09T11:49:50;21.80;58.90
2200;DHT22;1106;48.762;9.168;2022-09-09T11:52:35;22.10;58.60
2200;DHT22;1106;48.762;9.168;2022-09-09T11:55:09;22.40;58.00
2200;DHT22;1106;48.762;9.168;2022-09-09T11:57:38;22.70;57.50
2200;DHT22;1106;48.762;9.168;2022-09-09T12:00:30;22.80;56.60
2200;DHT22;1106;48.762;9.168;2022-09-09T12:02:58;22.70;57.30
2200;DHT22;1106;48.762;9.168;2022-09-09T12:05:36;22.90;57.10
2200;DHT22;1106;48.762;9.168;2022-09-09T12:08:04;23.00;56.40
2200;DHT22;1106;48.762;9.168;2022-09-09T12:10:33;23.10;55.40
2200;DHT22;1106;48.762;9.168;2022-09-09T12:13:18;22.90;55.80
2200;DHT22;1106;48.762;9.168;2022-09-09T12:15:51;22.80;56.70
2200;DHT22;1106;48.762;9.168;2022-09-09T12:18:23;22.50;56.50
2200;DHT22;1106;48.762;9.168;2022-09-09T12:21:00;22.40;57.10
2200;DHT22;1106;48.762;9.168;2022-09-09T12:23:38;22.40;57.50
2200;DHT22;1106;48.762;9.168;2022-09-09T12:26:21;22.60;56.80
2200;DHT22;1106;48.762;9.168;2022-09-09T12:28:57;22.70;56.00
2200;DHT22;1106;48.762;9.168;2022-09-09T12:31:33;22.60;55.30
2200;DHT22;1106;48.762;9.168;2022-09-09T12:34:10;22.60;55.30
2200;DHT22;1106;48.762;9.168;2022-09-09T12:36:39;22.60;54.30
2200;DHT22;1106;48.762;9.168;2022-09-09T12:39:15;22.80;54.20
2200;DHT22;1106;48.762;9.168;2022-09-09T12:41:51;23.00;53.10
2200;DHT22;1106;48.762;9.168;2022-09-09T12:44:18;23.10;52.70
2200;DHT22;1106;48.762;9.168;2022-09-09T12:46:48;23.20;53.20
2200;DHT22;1106;48.762;9.168;2022-09-09T12:49:29;23.20;53.20
2200;DHT22;1106;48.762;9.168;2022-09-09T12:52:01;23.30;53.30
2200;DHT22;1106;48.762;9.168;2022-09-09T12:54:33;23.30;53.70
2200;DHT22;1106;48.762;9.168;2022-09-09T12:57:02;23.30;54.00
2200;DHT22;1106;48.762;9.168;2022-09-09T12:59:36;23.40;54.40
2200;DHT22;1106;48.762;9.168;2022-09-09T13:02:20;23.50;54.10
2200;DHT22;1106;48.762;9.168;2022-09-09T13:04:49;23.60;54.10
2200;DHT22;1106;48.762;9.168;2022-09-09T13:07:17;23.60;54.50
2200;DHT22;1106;48.762;9.168;2022-09-09T13:09:45;23.60;54.20
2200;DHT22;1106;48.762;9.168;2022-09-09T13:12:15;23.60;54.20
2200;DHT22;1106;48.762;9.168;2022-09-09T13:14:44;23.60;54.30
2200;DHT22;1106;48.762;9.168;2022-09-09T13:17:20;23.60;54.00
2200;DHT22;1106;48.762;9.168;2022-09-09T13:19:48;23.60;54.10
2200;DHT22;1106;48.762;9.168;2022-09-09T13:22:24;23.80;53.70
2200;DHT22;1106;48.762;9.168;2022-09-09T13:25:05;24.10;53.20
2200;DHT22;1106;48.762;9.168;2022-09-09T13:27:35;24.10;52.50
2200;DHT22;1106;48.762;9.168;2022-09-09T13:30:20;24.10;52.50
2200;DHT22;1106;48.762;9.168;2022-09-09T13:33:01;24.00;52.90
2200;DHT22;1106;48.762;9.168;2022-09-09T13:35:29;24.10;52.70
2200;DHT22;1106;48.762;9.168;2022-09-09T13:38:17;24.20;52.60
2200;DHT22;1106;48.762;9.168;2022-09-09T13:40:55;24.50;51.40
2200;DHT22;1106;48.762;9.168;2022-09-09T13:43:24;24.60;50.10
2200;DHT22;1106;48.762;9.168;2022-09-09T13:45:54;24.60;50.30
2200;DHT22;1106;48.762;9.168;2022-09-09T13:48:25;24.60;50.00
2200;DHT22;1106;48.762;9.168;2022-09-09T13:50:57;24.70;50.10
2200;DHT22;1106;48.762;9.168;2022-09-09T13:53:25;24.80;50.50
2200;DHT22;1106;48.762;9.168;2022-09-09T13:55:53;24.90;49.90
2200;DHT22;1106;48.762;9.168;2022-09-09T13:58:22;25.10;50.10
2200;DHT22;1106;48.762;9.168;2022-09-09T14:00:51;25.20;49.80
2200;DHT22;1106;48.762;9.168;2022-09-09T14:03:19;25.30;49.90
2200;DHT22;1106;48.762;9.168;2022-09-09T14:05:48;25.40;48.90
2200;DHT22;1106;48.762;9.168;2022-09-09T14:08:22;25.60;48.90
2200;DHT22;1106;48.762;9.168;2022-09-09T14:10:51;25.50;48.50
2200;DHT22;1106;48.762;9.168;2022-09-09T14:13:40;25.40;48.60
2200;DHT22;1106;48.762;9.168;2022-09-09T14:16:07;25.40;48.40
2200;DHT22;1106;48.762;9.168;2022-09-09T14:18:34;25.30;48.20
2200;DHT22;1106;48.762;9.168;2022-09-09T14:21:03;25.20;48.80
2200;DHT22;1106;48.762;9.168;2022-09-09T14:23:30;25.20;49.00
2200;DHT22;1106;48.762;9.168;2022-09-09T14:25:57;25.20;48.40
2200;DHT22;1106;48.762;9.168;2022-09-09T14:28:24;25.10;48.30
2200;DHT22;1106;48.762;9.168;2022-09-09T14:30:54;24.90;48.80
2200;DHT22;1106;48.762;9.168;2022-09-09T14:33:22;24.80;49.00
2200;DHT22;1106;48.762;9.168;2022-09-09T14:35:55;25.00;48.60
2200;DHT22;1106;48.762;9.168;2022-09-09T14:38:24;25.10;48.10
2200;DHT22;1106;48.762;9.168;2022-09-09T14:40:52;25.00;47.60
2200;DHT22;1106;48.762;9.168;2022-09-09T14:43:19;25.00;47.90
2200;DHT22;1106;48.762;9.168;2022-09-09T14:45:46;25.00;48.00
2200;DHT22;1106;48.762;9.168;2022-09-09T14:48:18;25.10;48.00
2200;DHT22;1106;48.762;9.168;2022-09-09T14:50:45;25.30;47.90
2200;DHT22;1106;48.762;9.168;2022-09-09T14:53:12;25.40;46.90
2200;DHT22;1106;48.762;9.168;2022-09-09T14:55:40;25.50;47.00
2200;DHT22;1106;48.762;9.168;2022-09-09T14:58:07;25.70;46.90
2200;DHT22;1106;48.762;9.168;2022-09-09T15:00:34;25.80;46.20
2200;DHT22;1106;48.762;9.168;2022-09-09T15:03:01;25.60;46.00
2200;DHT22;1106;48.762;9.168;2022-09-09T15:05:28;25.30;46.60
2200;DHT22;1106;48.762;9.168;2022-09-09T15:07:57;25.10;47.00
2200;DHT22;1106;48.762;9.168;2022-09-09T15:10:24;24.90;46.50
2200;DHT22;1106;48.762;9.168;2022-09-09T15:12:53;24.40;47.40
2200;DHT22;1106;48.762;9.168;2022-09-09T15:15:20;24.30;48.10
2200;DHT22;1106;48.762;9.168;2022-09-09T15:17:47;24.20;48.30
2200;DHT22;1106;48.762;9.168;2022-09-09T15:20:14;24.10;48.70
2200;DHT22;1106;48.762;9.168;2022-09-09T15:22:42;23.90;49.10
2200;DHT22;1106;48.762;9.168;2022-09-09T15:25:09;23.90;49.10
2200;DHT22;1106;48.762;9.168;2022-09-09T15:27:37;24.00;49.00
2200;DHT22;1106;48.762;9.168;2022-09-09T15:30:08;23.80;49.30
2200;DHT22;1106;48.762;9.168;2022-09-09T15:32:35;23.70;49.70
2200;DHT22;1106;48.762;9.168;2022-09-09T15:35:02;23.90;49.70
2200;DHT22;1106;48.762;9.168;2022-09-09T15:37:29;24.00;49.80
2200;DHT22;1106;48.762;9.168;2022-09-09T15:39:56;24.00;49.70
2200;DHT22;1106;48.762;9.168;2022-09-09T15:42:24;24.20;49.70
2200;DHT22;1106;48.762;9.168;2022-09-09T15:44:52;24.10;49.70
2200;DHT22;1106;48.762;9.168;2022-09-09T15:47:20;24.00;49.50
2200;DHT22;1106;48.762;9.168;2022-09-09T15:49:49;23.50;50.30
2200;DHT22;1106;48.762;9.168;2022-09-09T15:52:17;23.30;50.90
2200;DHT22;1106;48.762;9.168;2022-09-09T15:54:44;23.30;51.40
2200;DHT22;1106;48.762;9.168;2022-09-09T15:57:12;23.30;51.20
2200;DHT22;1106;48.762;9.168;2022-09-09T15:59:39;23.20;51.10
2200;DHT22;1106;48.762;9.168;2022-09-09T16:02:06;23.20;51.00
2200;DHT22;1106;48.762;9.168;2022-09-09T16:04:35;23.00;50.80
2200;DHT22;1106;48.762;9.168;2022-09-09T16:07:03;22.90;50.90
2200;DHT22;1106;48.762;9.168;2022-09-09T16:09:31;22.90;50.80
2200;DHT22;1106;48.762;9.168;2022-09-09T16:12:00;22.90;50.70
2200;DHT22;1106;48.762;9.168;2022-09-09T16:17:49;22.70;51.10
2200;DHT22;1106;48.762;9.168;2022-09-09T16:20:21;22.70;51.30
2200;DHT22;1106;48.762;9.168;2022-09-09T16:22:47;22.60;51.40
2200;DHT22;1106;48.762;9.168;2022-09-09T16:25:14;22.50;51.80
2200;DHT22;1106;48.762;9.168;2022-09-09T16:27:41;22.40;51.90
2200;DHT22;1106;48.762;9.168;2022-09-09T16:30:10;22.40;52.10
2200;DHT22;1106;48.762;9.168;2022-09-09T16:32:36;22.30;52.40
2200;DHT22;1106;48.762;9.168;2022-09-09T16:35:04;22.30;52.70
2200;DHT22;1106;48.762;9.168;2022-09-09T16:37:33;22.20;53.30
2200;DHT22;1106;48.762;9.168;2022-09-09T16:40:00;22.20;53.50
2200;DHT22;1106;48.762;9.168;2022-09-09T16:42:28;21.90;54.10
2200;DHT22;1106;48.762;9.168;2022-09-09T16:44:55;21.80;55.50
2200;DHT22;1106;48.762;9.168;2022-09-09T16:47:22;21.40;56.70
2200;DHT22;1106;48.762;9.168;2022-09-09T16:49:49;21.40;56.90
2200;DHT22;1106;48.762;9.168;2022-09-09T16:52:16;21.40;56.00
2200;DHT22;1106;48.762;9.168;2022-09-09T16:54:44;21.20;56.00
2200;DHT22;1106;48.762;9.168;2022-09-09T16:57:11;21.20;56.10
2200;DHT22;1106;48.762;9.168;2022-09-09T16:59:38;21.00;56.80
2200;DHT22;1106;48.762;9.168;2022-09-09T17:02:05;20.90;57.10
2200;DHT22;1106;48.762;9.168;2022-09-09T17:04:32;20.60;57.80
2200;DHT22;1106;48.762;9.168;2022-09-09T17:06:59;20.60;57.70
2200;DHT22;1106;48.762;9.168;2022-09-09T17:09:27;20.70;57.60
2200;DHT22;1106;48.762;9.168;2022-09-09T17:11:58;20.70;57.90
2200;DHT22;1106;48.762;9.168;2022-09-09T17:14:29;20.70;58.00
2200;DHT22;1106;48.762;9.168;2022-09-09T17:16:57;20.70;58.10
2200;DHT22;1106;48.762;9.168;2022-09-09T17:19:26;20.50;58.60
2200;DHT22;1106;48.762;9.168;2022-09-09T17:21:53;20.10;59.70
2200;DHT22;1106;48.762;9.168;2022-09-09T17:24:22;20.00;60.30
2200;DHT22;1106;48.762;9.168;2022-09-09T17:26:50;19.90;60.80
2200;DHT22;1106;48.762;9.168;2022-09-09T17:29:28;19.90;61.00
2200;DHT22;1106;48.762;9.168;2022-09-09T17:31:55;19.90;61.30
2200;DHT22;1106;48.762;9.168;2022-09-09T17:34:23;19.90;61.50
2200;DHT22;1106;48.762;9.168;2022-09-09T17:36:51;19.90;61.70
2200;DHT22;1106;48.762;9.168;2022-09-09T17:39:18;19.80;62.00
2200;DHT22;1106;48.762;9.168;2022-09-09T17:41:45;19.70;62.50